createdAt,value
2018-08-28T00:02:30.954Z,2.70
2018-08-28T00:05:02.227Z,2.50
2018-08-28T00:07:31.635Z,3.02
2018-08-28T00:10:01.107Z,3.15
2018-08-28T00:12:30.655Z,2.37
2018-08-28T00:15:00.123Z,2.90
2018-08-28T00:17:29.567Z,2.58
2018-08-28T00:19:58.932Z,2.92
2018-08-28T00:22:28.350Z,2.85
2018-08-28T00:24:57.815Z,2.90
2018-08-28T00:27:27.236Z,2.50
2018-08-28T00:29:56.628Z,3.50
2018-08-28T00:32:26.039Z,3.35
2018-08-28T00:34:55.421Z,3.08
2018-08-28T00:37:24.821Z,3.42
2018-08-28T00:39:53.201Z,3.00
2018-08-28T00:42:22.716Z,4.80
2018-08-28T00:44:52.125Z,4.30
2018-08-28T00:47:21.632Z,3.67
2018-08-28T00:49:51.366Z,4.30
2018-08-28T00:52:20.850Z,4.45
2018-08-28T00:54:50.226Z,4.12
2018-08-28T00:57:19.586Z,3.60
2018-08-28T00:59:48.973Z,4.20
2018-08-28T01:02:18.404Z,3.50
2018-08-28T01:04:47.847Z,4.17
2018-08-28T01:07:17.253Z,3.95
2018-08-28T01:09:46.750Z,3.65
2018-08-28T01:12:16.292Z,4.87
2018-08-28T01:14:46.700Z,4.03
2018-08-28T01:17:16.116Z,4.15
2018-08-28T01:19:45.525Z,5.03
2018-08-28T01:22:14.924Z,4.87
2018-08-28T01:24:44.293Z,4.25
2018-08-28T01:27:13.704Z,4.58
2018-08-28T01:29:43.071Z,5.17
2018-08-28T01:32:12.507Z,4.50
2018-08-28T01:34:41.880Z,4.17
2018-08-28T01:37:11.340Z,5.40
2018-08-28T01:39:40.750Z,4.20
2018-08-28T01:42:10.148Z,4.62
2018-08-28T01:44:39.579Z,4.83
2018-08-28T01:47:08.992Z,4.17
2018-08-28T01:49:38.385Z,4.00
2018-08-28T01:52:07.795Z,4.78
2018-08-28T01:54:37.177Z,4.20
2018-08-28T01:57:06.905Z,4.22
2018-08-28T01:59:36.263Z,5.58
2018-08-28T02:02:05.730Z,4.12
2018-08-28T02:04:35.138Z,4.50
2018-08-28T02:07:04.606Z,4.47
2018-08-28T02:09:34.019Z,4.42
2018-08-28T02:12:03.476Z,4.55
2018-08-28T02:14:32.942Z,4.08
2018-08-28T02:17:02.445Z,5.28
2018-08-28T02:19:31.942Z,4.00
2018-08-28T02:22:01.458Z,4.40
2018-08-28T02:24:30.863Z,4.80
2018-08-28T02:27:00.385Z,4.15
2018-08-28T02:29:29.761Z,4.22
2018-08-28T02:31:59.170Z,5.47
2018-08-28T02:34:28.585Z,5.15
2018-08-28T02:36:57.991Z,4.20
2018-08-28T02:39:27.364Z,5.25
2018-08-28T02:41:56.795Z,5.47
2018-08-28T02:44:26.146Z,4.72
2018-08-28T02:46:55.600Z,4.72
2018-08-28T02:49:24.978Z,5.35
2018-08-28T02:51:54.370Z,5.08
2018-08-28T02:54:23.752Z,4.58
2018-08-28T02:56:53.156Z,5.22
2018-08-28T02:59:22.532Z,4.92
2018-08-28T03:01:51.888Z,4.95
2018-08-28T03:04:21.282Z,6.15
2018-08-28T03:06:50.666Z,5.78
2018-08-28T03:09:20.090Z,5.08
2018-08-28T03:11:49.524Z,5.25
2018-08-28T03:14:18.955Z,5.28
2018-08-28T03:16:48.497Z,5.00
2018-08-28T03:19:17.925Z,5.28
2018-08-28T03:21:47.403Z,5.80
2018-08-28T03:24:16.811Z,5.05
2018-08-28T03:26:46.243Z,4.47
2018-08-28T03:29:15.653Z,5.03
2018-08-28T03:31:45.034Z,5.60
2018-08-28T03:34:14.463Z,5.62
2018-08-28T03:36:43.851Z,5.47
2018-08-28T03:39:13.963Z,6.20
2018-08-28T03:41:43.345Z,6.17
2018-08-28T03:44:12.790Z,5.47
2018-08-28T03:46:42.215Z,5.12
2018-08-28T03:49:11.648Z,5.40
2018-08-28T03:51:41.031Z,5.67
2018-08-28T03:54:10.417Z,6.47
2018-08-28T03:56:39.836Z,6.00
2018-08-28T03:59:09.173Z,5.70
2018-08-28T04:01:38.577Z,4.87
2018-08-28T04:04:07.936Z,5.90
2018-08-28T04:06:37.371Z,6.87
2018-08-28T04:09:08.448Z,6.50
2018-08-28T04:11:37.832Z,5.40
2018-08-28T04:14:07.242Z,5.40
2018-08-28T04:16:36.636Z,6.28
2018-08-28T04:19:06.278Z,6.28
2018-08-28T04:21:35.692Z,5.50
2018-08-28T04:24:05.203Z,5.72
2018-08-28T04:26:34.704Z,5.20
2018-08-28T04:29:04.247Z,5.83
2018-08-28T04:31:33.750Z,6.28
2018-08-28T04:34:03.186Z,6.15
2018-08-28T04:36:32.563Z,5.92
2018-08-28T04:39:01.911Z,5.20
2018-08-28T04:41:31.296Z,5.80
2018-08-28T04:44:00.650Z,6.45
2018-08-28T04:46:30.084Z,5.92
2018-08-28T04:48:59.558Z,6.40
2018-08-28T04:51:29.124Z,5.65
2018-08-28T04:53:58.492Z,6.00
2018-08-28T04:56:27.852Z,6.17
2018-08-28T04:58:57.323Z,6.10
2018-08-28T05:01:26.745Z,6.08
2018-08-28T05:03:56.127Z,6.47
2018-08-28T05:06:25.538Z,5.87
2018-08-28T05:08:54.937Z,5.37
2018-08-28T05:11:24.330Z,6.28
2018-08-28T05:13:53.744Z,6.37
2018-08-28T05:16:23.193Z,5.90
2018-08-28T05:18:52.562Z,5.75
2018-08-28T05:21:21.954Z,6.62
2018-08-28T05:23:51.339Z,6.92
2018-08-28T05:26:20.766Z,6.45
2018-08-28T05:28:50.227Z,7.28
2018-08-28T05:31:19.664Z,7.40
2018-08-28T05:33:49.123Z,7.15
2018-08-28T05:36:18.507Z,6.72
2018-08-28T05:38:47.933Z,7.83
2018-08-28T05:41:17.302Z,7.83
2018-08-28T05:43:46.739Z,6.62
2018-08-28T05:46:16.120Z,7.62
2018-08-28T05:48:45.552Z,7.30
2018-08-28T05:51:15.017Z,6.75
2018-08-28T05:53:44.443Z,6.60
2018-08-28T05:56:13.915Z,6.58
2018-08-28T05:58:43.268Z,6.65
2018-08-28T06:01:12.749Z,6.70
2018-08-28T06:03:42.127Z,6.95
2018-08-28T06:06:11.522Z,6.30
2018-08-28T06:08:40.961Z,7.05
2018-08-28T06:11:10.370Z,7.22
2018-08-28T06:13:39.836Z,6.92
2018-08-28T06:16:09.221Z,6.53
2018-08-28T06:18:38.600Z,7.47
2018-08-28T06:21:08.037Z,7.20
2018-08-28T06:23:37.385Z,7.45
2018-08-28T06:26:06.804Z,7.62
2018-08-28T06:28:36.249Z,6.92
2018-08-28T06:31:05.978Z,7.05
2018-08-28T06:33:35.389Z,7.20
2018-08-28T06:36:04.793Z,7.25
2018-08-28T06:38:34.221Z,7.20
2018-08-28T06:41:03.621Z,6.25
2018-08-28T06:43:33.068Z,6.75
2018-08-28T06:46:02.433Z,6.95
2018-08-28T06:48:31.784Z,7.90
2018-08-28T06:51:01.210Z,7.33
2018-08-28T06:53:30.632Z,6.40
2018-08-28T06:56:00.001Z,6.65
2018-08-28T06:58:29.404Z,6.37
2018-08-28T07:00:58.795Z,6.60
2018-08-28T07:03:28.167Z,6.95
2018-08-28T07:05:57.607Z,7.00
2018-08-28T07:08:27.102Z,6.60
2018-08-28T07:10:56.446Z,6.58
2018-08-28T07:13:25.902Z,7.03
2018-08-28T07:15:55.358Z,6.42
2018-08-28T07:18:24.836Z,6.25
2018-08-28T07:20:54.228Z,5.83
2018-08-28T07:23:23.659Z,7.45
2018-08-28T07:25:53.078Z,7.78
2018-08-28T07:28:22.578Z,6.85
2018-08-28T07:30:51.966Z,6.42
2018-08-28T07:33:21.363Z,6.30
2018-08-28T07:35:50.853Z,7.03
2018-08-28T07:38:20.353Z,7.33
2018-08-28T07:40:49.770Z,6.55
2018-08-28T07:43:19.161Z,6.87
2018-08-28T07:45:48.585Z,6.53
2018-08-28T07:48:18.050Z,5.92
2018-08-28T07:50:47.443Z,6.50
2018-08-28T07:53:16.919Z,7.85
2018-08-28T07:55:46.286Z,7.42
2018-08-28T07:58:15.736Z,6.17
2018-08-28T08:00:45.136Z,6.97
2018-08-28T08:03:14.597Z,7.30
2018-08-28T08:05:44.003Z,7.05
2018-08-28T08:08:13.395Z,6.87
2018-08-28T08:10:42.844Z,6.53
2018-08-28T08:13:12.291Z,6.35
2018-08-28T08:15:41.711Z,7.25
2018-08-28T08:18:11.097Z,6.08
2018-08-28T08:20:40.729Z,5.62
2018-08-28T08:23:10.345Z,7.03
2018-08-28T08:25:40.232Z,6.15
2018-08-28T08:28:09.765Z,6.80
2018-08-28T08:30:39.093Z,7.85
2018-08-28T08:33:08.763Z,7.00
2018-08-28T08:35:38.183Z,6.45
2018-08-28T08:38:07.579Z,7.30
2018-08-28T08:40:37.058Z,6.70
2018-08-28T08:43:06.652Z,7.00
2018-08-28T08:45:36.090Z,6.62
2018-08-28T08:48:05.560Z,6.78
2018-08-28T08:50:34.983Z,8.00
2018-08-28T08:53:04.373Z,7.75
2018-08-28T08:55:33.820Z,7.17
2018-08-28T08:58:03.194Z,7.55
2018-08-28T09:00:32.716Z,7.33
2018-08-28T09:03:02.126Z,6.90
2018-08-28T09:05:31.486Z,6.65
2018-08-28T09:08:00.888Z,6.67
2018-08-28T09:10:30.327Z,8.23
2018-08-28T09:12:59.672Z,7.17
2018-08-28T09:15:29.189Z,8.10
2018-08-28T09:17:58.500Z,8.03
2018-08-28T09:20:27.905Z,7.75
2018-08-28T09:22:57.257Z,8.45
2018-08-28T09:25:26.626Z,8.05
2018-08-28T09:27:56.041Z,6.62
2018-08-28T09:30:25.495Z,7.80
2018-08-28T09:32:54.891Z,7.15
2018-08-28T09:35:24.349Z,6.40
2018-08-28T09:37:53.784Z,6.87
2018-08-28T09:40:23.157Z,7.30
2018-08-28T09:42:52.525Z,8.43
2018-08-28T09:45:22.115Z,6.80
2018-08-28T09:47:51.567Z,7.35
2018-08-28T09:50:20.996Z,6.83
2018-08-28T09:52:50.334Z,8.00
2018-08-28T09:55:19.691Z,7.87
2018-08-28T09:57:49.070Z,7.60
2018-08-28T10:00:23.487Z,7.00
2018-08-28T10:02:52.958Z,7.08
2018-08-28T10:05:22.612Z,7.35
2018-08-28T10:07:52.023Z,7.60
2018-08-28T10:10:21.376Z,8.03
2018-08-28T10:12:50.783Z,8.05
2018-08-28T10:15:20.134Z,8.68
2018-08-28T10:17:49.568Z,8.03
2018-08-28T10:20:19.028Z,7.55
2018-08-28T10:22:48.479Z,8.05
2018-08-28T10:25:17.859Z,8.35
2018-08-28T10:27:47.192Z,7.95
2018-08-28T10:30:16.616Z,7.53
2018-08-28T10:32:45.996Z,8.45
2018-08-28T10:35:15.491Z,8.35
2018-08-28T10:37:44.863Z,7.87
2018-08-28T10:40:14.275Z,7.85
2018-08-28T10:42:43.663Z,7.30
2018-08-28T10:45:13.106Z,8.40
2018-08-28T10:47:42.510Z,7.40
2018-08-28T10:50:11.959Z,8.30
2018-08-28T10:52:41.459Z,8.03
2018-08-28T10:55:10.968Z,7.12
2018-08-28T10:57:40.403Z,7.67
2018-08-28T11:00:09.965Z,7.58
2018-08-28T11:02:39.396Z,8.93
2018-08-28T11:05:08.884Z,8.50
2018-08-28T11:07:38.322Z,8.98
2018-08-28T11:10:08.225Z,8.00
2018-08-28T11:12:37.637Z,7.10
2018-08-28T11:15:07.096Z,7.33
2018-08-28T11:17:36.488Z,7.37
2018-08-28T11:20:05.978Z,8.43
2018-08-28T11:22:35.338Z,7.87
2018-08-28T11:25:04.778Z,8.10
2018-08-28T11:27:34.295Z,8.63
2018-08-28T11:30:03.627Z,8.55
2018-08-28T11:32:33.031Z,7.78
2018-08-28T11:35:02.445Z,8.55
2018-08-28T11:37:31.822Z,8.48
2018-08-28T11:40:01.220Z,8.60
2018-08-28T11:42:30.571Z,8.05
2018-08-28T11:44:59.906Z,8.95
2018-08-28T11:47:29.315Z,7.90
2018-08-28T11:49:58.748Z,8.00
2018-08-28T11:52:28.228Z,9.33
2018-08-28T11:54:57.564Z,9.95
2018-08-28T11:57:26.922Z,9.13
2018-08-28T11:59:56.294Z,9.48
2018-08-28T12:02:25.709Z,8.00
2018-08-28T12:04:55.166Z,9.75
2018-08-28T12:07:24.629Z,8.90
2018-08-28T12:09:53.882Z,8.23
2018-08-28T12:12:23.280Z,8.90
2018-08-28T12:14:52.722Z,8.00
2018-08-28T12:17:22.150Z,9.23
2018-08-28T12:19:51.657Z,9.13
2018-08-28T12:22:21.083Z,9.13
2018-08-28T12:24:50.539Z,9.30
2018-08-28T12:27:19.961Z,8.60
2018-08-28T12:29:49.500Z,9.45
2018-08-28T12:32:18.895Z,9.35
2018-08-28T12:34:48.260Z,9.35
2018-08-28T12:37:17.752Z,8.78
2018-08-28T12:39:47.085Z,9.23
2018-08-28T12:42:16.518Z,9.80
2018-08-28T12:44:45.880Z,7.87
2018-08-28T12:47:15.252Z,8.30
2018-08-28T12:49:44.630Z,9.08
2018-08-28T12:52:14.026Z,8.55
2018-08-28T12:54:43.499Z,9.35
2018-08-28T12:57:12.898Z,8.98
2018-08-28T12:59:42.287Z,9.35
2018-08-28T13:02:11.633Z,8.95
2018-08-28T13:04:41.067Z,8.55
2018-08-28T13:07:10.626Z,8.98
2018-08-28T13:09:39.927Z,9.80
2018-08-28T13:12:09.379Z,8.60
2018-08-28T13:14:38.754Z,9.30
2018-08-28T13:17:08.139Z,9.15
2018-08-28T13:19:37.621Z,7.78
2018-08-28T13:22:07.419Z,8.55
2018-08-28T13:24:36.943Z,8.70
2018-08-28T13:27:06.422Z,8.43
2018-08-28T13:29:35.829Z,8.58
2018-08-28T13:32:06.743Z,9.20
2018-08-28T13:34:36.127Z,8.55
2018-08-28T13:37:05.647Z,9.23
2018-08-28T13:39:35.036Z,8.98
2018-08-28T13:42:04.466Z,7.47
2018-08-28T13:44:33.960Z,8.60
2018-08-28T13:47:03.388Z,8.80
2018-08-28T13:49:32.750Z,8.58
2018-08-28T13:52:02.255Z,8.68
2018-08-28T13:54:31.703Z,7.87
2018-08-28T13:57:01.090Z,9.25
2018-08-28T13:59:30.605Z,8.20
2018-08-28T14:02:00.066Z,8.50
2018-08-28T14:04:29.473Z,8.90
2018-08-28T14:06:58.947Z,8.20
2018-08-28T14:09:28.333Z,8.60
2018-08-28T14:11:57.913Z,8.45
2018-08-28T14:14:27.377Z,9.10
2018-08-28T14:16:56.780Z,8.53
2018-08-28T14:19:26.194Z,7.92
2018-08-28T14:21:55.668Z,9.08
2018-08-28T14:24:25.045Z,8.38
2018-08-28T14:26:54.423Z,9.08
2018-08-28T14:29:23.986Z,8.73
2018-08-28T14:31:53.316Z,8.25
2018-08-28T14:34:22.704Z,8.65
2018-08-28T14:36:52.127Z,8.53
2018-08-28T14:39:21.458Z,8.88
2018-08-28T14:41:50.852Z,9.08
2018-08-28T14:44:20.302Z,8.28
2018-08-28T14:46:49.771Z,8.43
2018-08-28T14:49:19.401Z,8.73
2018-08-28T14:51:48.825Z,8.40
2018-08-28T14:54:18.243Z,9.08
2018-08-28T14:56:47.736Z,8.90
2018-08-28T14:59:17.118Z,8.48
2018-08-28T15:01:46.562Z,8.83
2018-08-28T15:04:15.992Z,8.15
2018-08-28T15:06:45.437Z,8.28
2018-08-28T15:09:14.787Z,8.80
2018-08-28T15:11:44.228Z,9.15
2018-08-28T15:14:13.627Z,8.85
2018-08-28T15:16:43.135Z,8.68
2018-08-28T15:19:12.462Z,8.38
2018-08-28T15:21:41.879Z,8.58
2018-08-28T15:24:11.303Z,9.53
2018-08-28T15:26:40.689Z,8.43
2018-08-28T15:29:10.044Z,7.92
2018-08-28T15:31:39.549Z,9.13
2018-08-28T15:34:08.902Z,7.50
2018-08-28T15:36:38.296Z,8.35
2018-08-28T15:39:08.153Z,8.40
2018-08-28T15:41:37.633Z,9.23
2018-08-28T15:44:07.114Z,9.30
2018-08-28T15:46:36.574Z,7.60
2018-08-28T15:49:06.027Z,9.20
2018-08-28T15:51:35.520Z,8.75
2018-08-28T15:54:04.905Z,8.90
2018-08-28T15:56:34.275Z,9.05
2018-08-28T15:59:03.675Z,8.05
2018-08-28T16:01:32.984Z,8.85
2018-08-28T16:04:02.420Z,9.40
2018-08-28T16:06:31.842Z,8.50
2018-08-28T16:09:01.355Z,8.13
2018-08-28T16:11:30.783Z,8.20
2018-08-28T16:14:00.212Z,8.10
2018-08-28T16:16:30.835Z,8.60
2018-08-28T16:19:00.267Z,8.93
2018-08-28T16:21:36.993Z,8.35
2018-08-28T16:24:07.447Z,7.92
2018-08-28T16:26:38.135Z,9.25
2018-08-28T16:29:08.936Z,9.15
2018-08-28T16:31:38.386Z,9.60
2018-08-28T16:34:10.270Z,9.23
2018-08-28T16:36:41.432Z,9.85
2018-08-28T16:39:11.059Z,8.83
2018-08-28T16:41:42.177Z,8.60
2018-08-28T16:44:12.510Z,8.80
2018-08-28T16:46:41.991Z,8.60
2018-08-28T16:49:11.425Z,8.18
2018-08-28T16:51:41.587Z,9.50
2018-08-28T16:54:11.986Z,9.25
2018-08-28T16:56:41.812Z,9.75
2018-08-28T16:59:11.221Z,9.03
2018-08-28T17:01:40.802Z,8.80
2018-08-28T17:04:10.075Z,8.10
2018-08-28T17:06:39.558Z,7.70
2018-08-28T17:09:09.079Z,8.90
2018-08-28T17:11:38.504Z,9.55
2018-08-28T17:14:07.960Z,8.70
2018-08-28T17:16:37.501Z,8.95
2018-08-28T17:19:07.046Z,9.38
2018-08-28T17:21:36.439Z,8.10
2018-08-28T17:24:05.928Z,7.80
2018-08-28T17:26:35.364Z,9.38
2018-08-28T17:29:04.887Z,8.50
2018-08-28T17:31:36.335Z,7.75
2018-08-28T17:34:06.074Z,7.30
2018-08-28T17:36:35.470Z,7.97
2018-08-28T17:39:05.310Z,8.88
2018-08-28T17:41:34.684Z,8.75
2018-08-28T17:44:04.131Z,8.25
2018-08-28T17:46:33.543Z,8.45
2018-08-28T17:49:03.033Z,7.70
2018-08-28T17:51:32.343Z,7.87
2018-08-28T17:54:01.801Z,8.25
2018-08-28T17:56:31.235Z,7.70
2018-08-28T17:59:00.646Z,8.15
2018-08-28T18:01:30.247Z,7.70
2018-08-28T18:03:59.592Z,7.50
2018-08-28T18:06:29.038Z,8.18
2018-08-28T18:08:58.429Z,7.90
2018-08-28T18:11:27.886Z,7.25
2018-08-28T18:13:57.367Z,7.90
2018-08-28T18:16:26.831Z,7.33
2018-08-28T18:18:56.249Z,7.50
2018-08-28T18:21:25.604Z,7.35
2018-08-28T18:23:55.090Z,7.65
2018-08-28T18:26:24.543Z,7.70
2018-08-28T18:28:54.048Z,7.33
2018-08-28T18:31:23.617Z,7.65
2018-08-28T18:33:52.996Z,7.90
2018-08-28T18:36:22.399Z,7.60
2018-08-28T18:38:51.831Z,7.92
2018-08-28T18:41:21.283Z,8.08
2018-08-28T18:43:50.646Z,7.10
2018-08-28T18:46:20.113Z,8.58
2018-08-28T18:48:49.561Z,7.30
2018-08-28T18:51:19.052Z,8.53
2018-08-28T18:53:48.464Z,7.40
2018-08-28T18:56:17.998Z,8.20
2018-08-28T18:58:47.341Z,7.75
2018-08-28T19:01:16.764Z,7.78
2018-08-28T19:03:46.210Z,8.00
2018-08-28T19:06:15.616Z,7.75
2018-08-28T19:08:45.051Z,7.97
2018-08-28T19:11:14.442Z,9.03
2018-08-28T19:13:43.855Z,8.60
2018-08-28T19:16:13.243Z,8.83
2018-08-28T19:18:42.680Z,8.75
2018-08-28T19:21:12.168Z,8.28
2018-08-28T19:23:41.573Z,8.50
2018-08-28T19:26:11.147Z,8.15
2018-08-28T19:28:40.554Z,7.75
2018-08-28T19:31:09.958Z,7.92
2018-08-28T19:33:39.379Z,10.05
2018-08-28T19:36:08.878Z,10.13
2018-08-28T19:38:38.332Z,8.30
2018-08-28T19:41:07.798Z,8.78
2018-08-28T19:43:37.393Z,9.05
2018-08-28T19:46:06.807Z,9.90
2018-08-28T19:48:36.436Z,9.65
2018-08-28T19:51:05.906Z,9.63
2018-08-28T19:53:35.253Z,8.98
2018-08-28T19:56:05.158Z,8.55
2018-08-28T19:58:34.604Z,8.18
2018-08-28T20:01:03.992Z,8.80
2018-08-28T20:03:33.402Z,9.25
2018-08-28T20:06:02.844Z,8.43
2018-08-28T20:08:32.238Z,10.30
2018-08-28T20:11:01.639Z,8.58
2018-08-28T20:13:31.178Z,9.95
2018-08-28T20:16:00.633Z,9.43
2018-08-28T20:18:29.922Z,8.83
2018-08-28T20:20:59.307Z,9.08
2018-08-28T20:23:28.666Z,8.48
2018-08-28T20:25:58.028Z,8.55
2018-08-28T20:28:27.471Z,9.65
2018-08-28T20:30:56.892Z,7.87
2018-08-28T20:33:26.236Z,8.10
2018-08-28T20:35:55.782Z,9.00
2018-08-28T20:38:26.058Z,8.23
2018-08-28T20:40:55.408Z,8.20
2018-08-28T20:43:24.782Z,9.00
2018-08-28T20:45:54.196Z,8.90
2018-08-28T20:48:23.649Z,7.92
2018-08-28T20:50:53.078Z,8.38
2018-08-28T20:53:22.478Z,8.40
2018-08-28T20:55:51.898Z,7.33
2018-08-28T20:58:21.304Z,8.40
2018-08-28T21:00:50.726Z,8.70
2018-08-28T21:03:20.157Z,8.98
2018-08-28T21:05:49.546Z,8.75
2018-08-28T21:08:18.936Z,7.92
2018-08-28T21:10:48.350Z,8.48
2018-08-28T21:13:17.773Z,8.68
2018-08-28T21:15:47.279Z,7.67
2018-08-28T21:18:16.769Z,8.55
2018-08-28T21:20:46.209Z,7.80
2018-08-28T21:23:15.729Z,8.80
2018-08-28T21:25:45.176Z,8.98
2018-08-28T21:28:14.515Z,9.60
2018-08-28T21:30:43.911Z,8.68
2018-08-28T21:33:13.369Z,9.28
2018-08-28T21:35:42.774Z,8.83
2018-08-28T21:38:12.160Z,9.63
2018-08-28T21:40:41.619Z,8.98
2018-08-28T21:43:11.057Z,8.95
2018-08-28T21:45:40.443Z,9.40
2018-08-28T21:48:09.849Z,9.93
2018-08-28T21:50:39.218Z,8.80
2018-08-28T21:53:08.641Z,9.25
2018-08-28T21:55:38.112Z,10.15
2018-08-28T21:58:07.549Z,8.70
2018-08-28T22:00:36.924Z,9.10
2018-08-28T22:03:06.443Z,9.55
2018-08-28T22:05:35.941Z,8.80
2018-08-28T22:08:06.170Z,8.43
2018-08-28T22:10:35.545Z,8.15
2018-08-28T22:13:04.874Z,9.28
2018-08-28T22:15:34.299Z,9.10
2018-08-28T22:18:03.640Z,8.55
2018-08-28T22:20:33.002Z,9.10
2018-08-28T22:23:02.497Z,8.70
2018-08-28T22:25:31.872Z,10.35
2018-08-28T22:28:01.405Z,8.60
2018-08-28T22:30:30.903Z,9.70
2018-08-28T22:33:00.313Z,8.73
2018-08-28T22:35:29.655Z,9.23
2018-08-28T22:37:59.036Z,9.45
2018-08-28T22:40:28.459Z,9.30
2018-08-28T22:42:57.788Z,8.95
2018-08-28T22:45:27.264Z,9.70
2018-08-28T22:47:56.676Z,9.40
2018-08-28T22:50:26.090Z,8.70
2018-08-28T22:52:55.471Z,8.75
2018-08-28T22:55:24.816Z,9.25
2018-08-28T22:57:54.229Z,9.33
2018-08-28T23:00:24.339Z,9.38
2018-08-28T23:02:55.043Z,9.93
2018-08-28T23:05:24.541Z,10.18
2018-08-28T23:07:54.014Z,9.60
2018-08-28T23:10:23.464Z,10.65
2018-08-28T23:12:52.890Z,9.58
2018-08-28T23:15:23.243Z,9.40
2018-08-28T23:17:52.723Z,9.78
2018-08-28T23:20:22.151Z,10.48
2018-08-28T23:22:51.529Z,10.05
2018-08-28T23:25:20.864Z,9.33
2018-08-28T23:27:50.229Z,9.75
2018-08-28T23:30:19.700Z,8.48
2018-08-28T23:32:49.118Z,9.05
2018-08-28T23:35:18.583Z,8.60
2018-08-28T23:37:48.043Z,9.70
2018-08-28T23:40:17.426Z,9.33
2018-08-28T23:42:46.823Z,8.65
2018-08-28T23:45:16.242Z,10.28
2018-08-28T23:47:45.676Z,9.35
2018-08-28T23:50:15.170Z,8.90
2018-08-28T23:52:44.536Z,9.63
2018-08-28T23:55:13.989Z,10.45
2018-08-28T23:57:43.401Z,8.95
